sensor_id;sensor_type;location;lat;lon;timestamp;temperature;humidity
21035;DHT22;10676;50.848;3.272;2022-12-16T00:00:22;-3.40;99.90
21035;DHT22;10676;50.848;3.272;2022-12-16T00:02:49;-3.20;99.90
21035;DHT22;10676;50.848;3.272;2022-12-16T00:05:15;-3.30;99.90
21035;DHT22;10676;50.848;3.272;2022-12-16T00:07:41;-3.20;99.90
21035;DHT22;10676;50.848;3.272;2022-12-16T00:10:07;-3.10;99.90
21035;DHT22;10676;50.848;3.272;2022-12-16T00:12:33;-3.10;99.90
21035;DHT22;10676;50.848;3.272;2022-12-16T00:14:59;-3.00;99.90
21035;DHT22;10676;50.848;3.272;2022-12-16T00:17:25;-3.00;99.90
21035;DHT22;10676;50.848;3.272;2022-12-16T00:19:50;-2.90;99.90
21035;DHT22;10676;50.848;3.272;2022-12-16T00:22:16;-2.80;99.90
21035;DHT22;10676;50.848;3.272;2022-12-16T00:24:42;-2.70;99.90
21035;DHT22;10676;50.848;3.272;2022-12-16T00:27:07;-2.70;99.90
21035;DHT22;10676;50.848;3.272;2022-12-16T00:29:33;-2.70;99.90
21035;DHT22;10676;50.848;3.272;2022-12-16T00:31:59;-2.70;99.90
21035;DHT22;10676;50.848;3.272;2022-12-16T00:34:24;-2.60;99.90
21035;DHT22;10676;50.848;3.272;2022-12-16T00:36:51;-2.60;99.90
21035;DHT22;10676;50.848;3.272;2022-12-16T00:39:16;-2.60;99.90
21035;DHT22;10676;50.848;3.272;2022-12-16T00:41:42;-2.60;99.90
21035;DHT22;10676;50.848;3.272;2022-12-16T00:44:08;-2.60;99.90
21035;DHT22;10676;50.848;3.272;2022-12-16T00:46:33;-2.60;99.90
21035;DHT22;10676;50.848;3.272;2022-12-16T00:48:59;-2.60;99.90
21035;DHT22;10676;50.848;3.272;2022-12-16T00:51:25;-2.70;99.90
21035;DHT22;10676;50.848;3.272;2022-12-16T00:53:50;-2.70;99.90
21035;DHT22;10676;50.848;3.272;2022-12-16T00:56:16;-2.70;99.90
21035;DHT22;10676;50.848;3.272;2022-12-16T00:58:45;-2.70;99.90
21035;DHT22;10676;50.848;3.272;2022-12-16T01:01:11;-2.70;99.90
21035;DHT22;10676;50.848;3.272;2022-12-16T01:03:37;-2.80;99.90
21035;DHT22;10676;50.848;3.272;2022-12-16T01:06:11;-2.80;99.90
21035;DHT22;10676;50.848;3.272;2022-12-16T01:08:37;-2.70;99.90
21035;DHT22;10676;50.848;3.272;2022-12-16T01:11:02;-2.80;99.90
21035;DHT22;10676;50.848;3.272;2022-12-16T01:13:28;-2.70;99.90
21035;DHT22;10676;50.848;3.272;2022-12-16T01:15:54;-2.70;99.90
21035;DHT22;10676;50.848;3.272;2022-12-16T01:18:19;-2.60;99.90
21035;DHT22;10676;50.848;3.272;2022-12-16T01:20:45;-2.60;99.90
21035;DHT22;10676;50.848;3.272;2022-12-16T01:23:11;-2.50;99.90
21035;DHT22;10676;50.848;3.272;2022-12-16T01:25:36;-2.50;99.90
21035;DHT22;10676;50.848;3.272;2022-12-16T01:28:02;-2.50;99.90
21035;DHT22;10676;50.848;3.272;2022-12-16T01:30:28;-2.40;99.90
21035;DHT22;10676;50.848;3.272;2022-12-16T01:32:54;-2.40;99.90
21035;DHT22;10676;50.848;3.272;2022-12-16T01:35:19;-2.40;99.90
21035;DHT22;10676;50.848;3.272;2022-12-16T01:37:45;-2.30;99.90
21035;DHT22;10676;50.848;3.272;2022-12-16T01:40:17;-2.40;99.90
21035;DHT22;10676;50.848;3.272;2022-12-16T01:42:43;-2.40;99.90
21035;DHT22;10676;50.848;3.272;2022-12-16T01:45:29;-2.50;99.90
21035;DHT22;10676;50.848;3.272;2022-12-16T01:48:01;-2.50;99.90
21035;DHT22;10676;50.848;3.272;2022-12-16T01:50:28;-2.60;99.90
21035;DHT22;10676;50.848;3.272;2022-12-16T01:52:56;-2.60;99.90
21035;DHT22;10676;50.848;3.272;2022-12-16T01:55:27;-2.60;99.90
21035;DHT22;10676;50.848;3.272;2022-12-16T01:58:23;-2.70;99.90
21035;DHT22;10676;50.848;3.272;2022-12-16T02:00:50;-2.80;99.90
21035;DHT22;10676;50.848;3.272;2022-12-16T02:03:17;-2.90;99.90
21035;DHT22;10676;50.848;3.272;2022-12-16T02:05:44;-2.80;99.90
21035;DHT22;10676;50.848;3.272;2022-12-16T02:08:15;-2.90;99.90
21035;DHT22;10676;50.848;3.272;2022-12-16T02:13:48;-3.00;99.90
21035;DHT22;10676;50.848;3.272;2022-12-16T02:17:06;-3.10;99.90
21035;DHT22;10676;50.848;3.272;2022-12-16T02:22:14;-3.30;99.90
21035;DHT22;10676;50.848;3.272;2022-12-16T02:30:38;-3.60;99.90
21035;DHT22;10676;50.848;3.272;2022-12-16T02:35:45;-3.70;99.90
21035;DHT22;10676;50.848;3.272;2022-12-16T02:41:16;-3.80;99.90
21035;DHT22;10676;50.848;3.272;2022-12-16T02:44:03;-3.80;99.90
21035;DHT22;10676;50.848;3.272;2022-12-16T02:46:32;-3.90;99.90
21035;DHT22;10676;50.848;3.272;2022-12-16T02:49:07;-3.90;99.90
21035;DHT22;10676;50.848;3.272;2022-12-16T02:51:36;-3.90;99.90
21035;DHT22;10676;50.848;3.272;2022-12-16T02:54:04;-3.90;99.90
21035;DHT22;10676;50.848;3.272;2022-12-16T03:02:47;-4.10;99.90
21035;DHT22;10676;50.848;3.272;2022-12-16T03:05:22;-4.10;99.90
21035;DHT22;10676;50.848;3.272;2022-12-16T03:07:50;-4.10;99.90
21035;DHT22;10676;50.848;3.272;2022-12-16T03:10:20;-4.20;99.90
21035;DHT22;10676;50.848;3.272;2022-12-16T03:12:47;-4.20;99.90
21035;DHT22;10676;50.848;3.272;2022-12-16T03:15:16;-4.20;99.90
21035;DHT22;10676;50.848;3.272;2022-12-16T03:17:43;-4.20;99.90
21035;DHT22;10676;50.848;3.272;2022-12-16T03:22:56;-4.20;99.90
21035;DHT22;10676;50.848;3.272;2022-12-16T03:25:23;-4.20;99.90
21035;DHT22;10676;50.848;3.272;2022-12-16T03:30:24;-4.20;99.90
21035;DHT22;10676;50.848;3.272;2022-12-16T03:33:02;-4.20;99.90
21035;DHT22;10676;50.848;3.272;2022-12-16T03:36:03;-4.20;99.90
21035;DHT22;10676;50.848;3.272;2022-12-16T03:38:32;-4.20;99.90
21035;DHT22;10676;50.848;3.272;2022-12-16T03:40:58;-4.20;99.90
21035;DHT22;10676;50.848;3.272;2022-12-16T03:43:26;-4.20;99.90
21035;DHT22;10676;50.848;3.272;2022-12-16T03:45:53;-4.10;99.90
21035;DHT22;10676;50.848;3.272;2022-12-16T03:48:24;-4.10;99.90
21035;DHT22;10676;50.848;3.272;2022-12-16T03:50:50;-4.20;99.90
21035;DHT22;10676;50.848;3.272;2022-12-16T03:53:15;-4.20;99.90
21035;DHT22;10676;50.848;3.272;2022-12-16T03:55:41;-4.20;99.90
21035;DHT22;10676;50.848;3.272;2022-12-16T03:58:06;-4.30;99.90
21035;DHT22;10676;50.848;3.272;2022-12-16T04:00:32;-4.30;99.90
21035;DHT22;10676;50.848;3.272;2022-12-16T04:02:58;-4.30;99.90
21035;DHT22;10676;50.848;3.272;2022-12-16T04:05:24;-4.40;99.90
21035;DHT22;10676;50.848;3.272;2022-12-16T04:07:50;-4.40;99.90
21035;DHT22;10676;50.848;3.272;2022-12-16T04:10:16;-4.50;99.90
21035;DHT22;10676;50.848;3.272;2022-12-16T04:12:41;-4.50;99.90
21035;DHT22;10676;50.848;3.272;2022-12-16T04:15:26;-4.50;99.90
21035;DHT22;10676;50.848;3.272;2022-12-16T04:18:16;-4.50;99.90
21035;DHT22;10676;50.848;3.272;2022-12-16T04:21:01;-4.50;99.90
21035;DHT22;10676;50.848;3.272;2022-12-16T04:23:49;-4.50;99.90
21035;DHT22;10676;50.848;3.272;2022-12-16T04:26:34;-4.40;99.90
21035;DHT22;10676;50.848;3.272;2022-12-16T04:29:18;-4.30;99.90
21035;DHT22;10676;50.848;3.272;2022-12-16T04:31:44;-4.20;99.90
21035;DHT22;10676;50.848;3.272;2022-12-16T04:34:10;-4.20;99.90
21035;DHT22;10676;50.848;3.272;2022-12-16T04:36:58;-4.00;99.90
21035;DHT22;10676;50.848;3.272;2022-12-16T04:39:44;-4.00;99.90
21035;DHT22;10676;50.848;3.272;2022-12-16T04:42:28;-3.80;99.90
21035;DHT22;10676;50.848;3.272;2022-12-16T04:45:12;-3.80;99.90
21035;DHT22;10676;50.848;3.272;2022-12-16T04:47:56;-3.60;99.90
21035;DHT22;10676;50.848;3.272;2022-12-16T04:50:40;-3.50;99.90
21035;DHT22;10676;50.848;3.272;2022-12-16T04:53:25;-3.40;99.90
21035;DHT22;10676;50.848;3.272;2022-12-16T04:56:10;-3.40;99.90
21035;DHT22;10676;50.848;3.272;2022-12-16T04:58:54;-3.30;99.90
21035;DHT22;10676;50.848;3.272;2022-12-16T05:01:38;-3.30;99.90
21035;DHT22;10676;50.848;3.272;2022-12-16T05:04:22;-3.30;99.90
21035;DHT22;10676;50.848;3.272;2022-12-16T05:07:06;-3.40;99.90
21035;DHT22;10676;50.848;3.272;2022-12-16T05:09:50;-3.30;99.90
21035;DHT22;10676;50.848;3.272;2022-12-16T05:12:34;-3.40;99.90
21035;DHT22;10676;50.848;3.272;2022-12-16T05:15:18;-3.40;99.90
21035;DHT22;10676;50.848;3.272;2022-12-16T05:18:13;-3.30;99.90
21035;DHT22;10676;50.848;3.272;2022-12-16T05:20:59;-3.30;99.90
21035;DHT22;10676;50.848;3.272;2022-12-16T05:23:43;-3.30;99.90
21035;DHT22;10676;50.848;3.272;2022-12-16T05:26:28;-3.30;99.90
21035;DHT22;10676;50.848;3.272;2022-12-16T05:29:12;-3.30;99.90
21035;DHT22;10676;50.848;3.272;2022-12-16T05:31:56;-3.40;99.90
21035;DHT22;10676;50.848;3.272;2022-12-16T05:34:40;-3.30;99.90
21035;DHT22;10676;50.848;3.272;2022-12-16T05:37:24;-3.40;99.90
21035;DHT22;10676;50.848;3.272;2022-12-16T05:40:09;-3.40;99.90
21035;DHT22;10676;50.848;3.272;2022-12-16T05:42:54;-3.50;99.90
21035;DHT22;10676;50.848;3.272;2022-12-16T05:45:41;-3.50;99.90
21035;DHT22;10676;50.848;3.272;2022-12-16T05:48:25;-3.60;99.90
21035;DHT22;10676;50.848;3.272;2022-12-16T05:51:10;-3.70;99.90
21035;DHT22;10676;50.848;3.272;2022-12-16T05:53:54;-3.80;99.90
21035;DHT22;10676;50.848;3.272;2022-12-16T05:56:38;-3.90;99.90
21035;DHT22;10676;50.848;3.272;2022-12-16T05:59:22;-4.00;99.90
21035;DHT22;10676;50.848;3.272;2022-12-16T06:02:06;-4.10;99.90
21035;DHT22;10676;50.848;3.272;2022-12-16T06:04:50;-4.20;99.90
21035;DHT22;10676;50.848;3.272;2022-12-16T06:07:35;-4.20;99.90
21035;DHT22;10676;50.848;3.272;2022-12-16T06:10:18;-4.20;99.90
21035;DHT22;10676;50.848;3.272;2022-12-16T06:13:03;-4.10;99.90
21035;DHT22;10676;50.848;3.272;2022-12-16T06:15:47;-4.10;99.90
21035;DHT22;10676;50.848;3.272;2022-12-16T06:18:31;-4.10;99.90
21035;DHT22;10676;50.848;3.272;2022-12-16T06:21:15;-4.10;99.90
21035;DHT22;10676;50.848;3.272;2022-12-16T06:23:59;-4.20;99.90
21035;DHT22;10676;50.848;3.272;2022-12-16T06:26:43;-4.20;99.90
21035;DHT22;10676;50.848;3.272;2022-12-16T06:29:27;-4.30;99.90
21035;DHT22;10676;50.848;3.272;2022-12-16T06:32:11;-4.30;99.90
21035;DHT22;10676;50.848;3.272;2022-12-16T06:34:55;-4.40;99.90
21035;DHT22;10676;50.848;3.272;2022-12-16T06:37:41;-4.40;99.90
21035;DHT22;10676;50.848;3.272;2022-12-16T06:40:25;-4.40;99.90
21035;DHT22;10676;50.848;3.272;2022-12-16T06:43:09;-4.40;99.90
21035;DHT22;10676;50.848;3.272;2022-12-16T06:45:53;-4.40;99.90
21035;DHT22;10676;50.848;3.272;2022-12-16T06:48:37;-4.40;99.90
21035;DHT22;10676;50.848;3.272;2022-12-16T06:51:21;-4.30;99.90
21035;DHT22;10676;50.848;3.272;2022-12-16T06:54:06;-4.20;99.90
21035;DHT22;10676;50.848;3.272;2022-12-16T06:56:50;-4.10;99.90
21035;DHT22;10676;50.848;3.272;2022-12-16T06:59:34;-3.90;99.90
21035;DHT22;10676;50.848;3.272;2022-12-16T07:02:18;-3.70;99.90
21035;DHT22;10676;50.848;3.272;2022-12-16T07:05:03;-3.50;99.90
21035;DHT22;10676;50.848;3.272;2022-12-16T07:07:51;-3.40;99.90
21035;DHT22;10676;50.848;3.272;2022-12-16T07:10:36;-3.20;99.90
21035;DHT22;10676;50.848;3.272;2022-12-16T07:13:20;-3.10;99.90
21035;DHT22;10676;50.848;3.272;2022-12-16T07:16:04;-2.90;99.90
21035;DHT22;10676;50.848;3.272;2022-12-16T07:18:49;-2.80;99.90
21035;DHT22;10676;50.848;3.272;2022-12-16T07:21:32;-2.80;99.90
21035;DHT22;10676;50.848;3.272;2022-12-16T07:24:16;-2.70;99.90
21035;DHT22;10676;50.848;3.272;2022-12-16T07:27:00;-2.80;99.90
21035;DHT22;10676;50.848;3.272;2022-12-16T07:29:45;-2.80;99.90
21035;DHT22;10676;50.848;3.272;2022-12-16T07:32:29;-2.90;99.90
21035;DHT22;10676;50.848;3.272;2022-12-16T07:35:13;-2.90;99.90
21035;DHT22;10676;50.848;3.272;2022-12-16T07:37:57;-2.90;99.90
21035;DHT22;10676;50.848;3.272;2022-12-16T07:40:41;-3.00;99.90
21035;DHT22;10676;50.848;3.272;2022-12-16T07:43:25;-3.00;99.90
21035;DHT22;10676;50.848;3.272;2022-12-16T07:46:09;-3.00;99.90
21035;DHT22;10676;50.848;3.272;2022-12-16T07:48:53;-3.00;99.90
21035;DHT22;10676;50.848;3.272;2022-12-16T07:51:37;-3.00;99.90
21035;DHT22;10676;50.848;3.272;2022-12-16T07:54:21;-3.00;99.90
21035;DHT22;10676;50.848;3.272;2022-12-16T07:57:05;-3.00;99.90
21035;DHT22;10676;50.848;3.272;2022-12-16T07:59:49;-3.10;99.90
21035;DHT22;10676;50.848;3.272;2022-12-16T08:02:41;-3.20;99.90
21035;DHT22;10676;50.848;3.272;2022-12-16T08:05:25;-3.30;99.90
21035;DHT22;10676;50.848;3.272;2022-12-16T08:08:09;-3.30;99.90
21035;DHT22;10676;50.848;3.272;2022-12-16T08:11:00;-3.30;99.90
21035;DHT22;10676;50.848;3.272;2022-12-16T08:13:44;-3.40;99.90
21035;DHT22;10676;50.848;3.272;2022-12-16T08:16:29;-3.40;99.90
21035;DHT22;10676;50.848;3.272;2022-12-16T08:19:14;-3.50;99.90
21035;DHT22;10676;50.848;3.272;2022-12-16T08:21:58;-3.50;99.90
21035;DHT22;10676;50.848;3.272;2022-12-16T08:24:42;-3.40;99.90
21035;DHT22;10676;50.848;3.272;2022-12-16T08:27:26;-3.40;99.90
21035;DHT22;10676;50.848;3.272;2022-12-16T08:30:10;-3.30;99.90
21035;DHT22;10676;50.848;3.272;2022-12-16T08:32:55;-3.20;99.90
21035;DHT22;10676;50.848;3.272;2022-12-16T08:35:39;-3.20;99.90
21035;DHT22;10676;50.848;3.272;2022-12-16T08:38:23;-3.20;99.90
21035;DHT22;10676;50.848;3.272;2022-12-16T08:41:07;-3.10;99.90
21035;DHT22;10676;50.848;3.272;2022-12-16T08:43:51;-3.10;99.90
21035;DHT22;10676;50.848;3.272;2022-12-16T08:46:35;-3.00;99.90
21035;DHT22;10676;50.848;3.272;2022-12-16T08:49:19;-2.90;99.90
21035;DHT22;10676;50.848;3.272;2022-12-16T08:52:04;-2.80;99.90
21035;DHT22;10676;50.848;3.272;2022-12-16T08:54:48;-2.70;99.90
21035;DHT22;10676;50.848;3.272;2022-12-16T08:57:32;-2.60;99.90
21035;DHT22;10676;50.848;3.272;2022-12-16T09:00:16;-2.50;99.90
21035;DHT22;10676;50.848;3.272;2022-12-16T09:03:00;-2.40;99.90
21035;DHT22;10676;50.848;3.272;2022-12-16T09:05:44;-2.40;99.90
21035;DHT22;10676;50.848;3.272;2022-12-16T09:08:29;-2.20;99.90
21035;DHT22;10676;50.848;3.272;2022-12-16T09:11:13;-2.00;99.90
21035;DHT22;10676;50.848;3.272;2022-12-16T09:13:57;-1.90;99.90
21035;DHT22;10676;50.848;3.272;2022-12-16T09:16:41;-1.70;99.90
21035;DHT22;10676;50.848;3.272;2022-12-16T09:19:25;-1.60;99.90
21035;DHT22;10676;50.848;3.272;2022-12-16T09:22:10;-1.50;99.90
21035;DHT22;10676;50.848;3.272;2022-12-16T09:24:54;-1.20;99.90
21035;DHT22;10676;50.848;3.272;2022-12-16T09:27:38;-0.70;99.90
21035;DHT22;10676;50.848;3.272;2022-12-16T09:30:22;-0.10;99.90
21035;DHT22;10676;50.848;3.272;2022-12-16T09:33:06;0.90;99.90
21035;DHT22;10676;50.848;3.272;2022-12-16T09:35:50;2.00;99.90
21035;DHT22;10676;50.848;3.272;2022-12-16T09:38:34;3.20;99.90
21035;DHT22;10676;50.848;3.272;2022-12-16T09:41:37;4.60;99.90
21035;DHT22;10676;50.848;3.272;2022-12-16T09:50:48;8.80;99.90
21035;DHT22;10676;50.848;3.272;2022-12-16T09:53:37;9.80;99.90
21035;DHT22;10676;50.848;3.272;2022-12-16T09:56:27;10.80;99.90
21035;DHT22;10676;50.848;3.272;2022-12-16T09:59:16;11.60;99.90
21035;DHT22;10676;50.848;3.272;2022-12-16T10:02:01;12.50;99.90
21035;DHT22;10676;50.848;3.272;2022-12-16T10:04:50;13.20;99.90
21035;DHT22;10676;50.848;3.272;2022-12-16T10:07:38;13.50;99.90
21035;DHT22;10676;50.848;3.272;2022-12-16T10:10:45;13.20;99.90
21035;DHT22;10676;50.848;3.272;2022-12-16T10:13:39;12.70;99.90
21035;DHT22;10676;50.848;3.272;2022-12-16T10:22:38;10.00;99.90
21035;DHT22;10676;50.848;3.272;2022-12-16T10:25:34;9.00;99.90
21035;DHT22;10676;50.848;3.272;2022-12-16T10:28:47;7.90;99.90
21035;DHT22;10676;50.848;3.272;2022-12-16T10:31:33;7.00;99.90
21035;DHT22;10676;50.848;3.272;2022-12-16T10:34:27;6.20;99.90
21035;DHT22;10676;50.848;3.272;2022-12-16T10:37:19;5.70;99.90
21035;DHT22;10676;50.848;3.272;2022-12-16T10:40:05;5.30;99.90
21035;DHT22;10676;50.848;3.272;2022-12-16T10:42:58;5.00;99.90
21035;DHT22;10676;50.848;3.272;2022-12-16T10:45:47;4.90;99.90
21035;DHT22;10676;50.848;3.272;2022-12-16T10:48:33;5.00;99.90
21035;DHT22;10676;50.848;3.272;2022-12-16T10:51:20;5.00;99.90
21035;DHT22;10676;50.848;3.272;2022-12-16T10:54:31;5.00;99.90
21035;DHT22;10676;50.848;3.272;2022-12-16T11:00:55;5.10;99.90
21035;DHT22;10676;50.848;3.272;2022-12-16T11:03:25;5.30;99.90
21035;DHT22;10676;50.848;3.272;2022-12-16T11:06:14;5.60;99.90
21035;DHT22;10676;50.848;3.272;2022-12-16T11:12:27;5.70;99.90
21035;DHT22;10676;50.848;3.272;2022-12-16T11:15:28;5.90;99.90
21035;DHT22;10676;50.848;3.272;2022-12-16T11:18:20;6.00;99.90
21035;DHT22;10676;50.848;3.272;2022-12-16T11:21:16;6.10;99.90
21035;DHT22;10676;50.848;3.272;2022-12-16T11:26:58;6.10;99.90
21035;DHT22;10676;50.848;3.272;2022-12-16T11:29:54;6.20;99.90
21035;DHT22;10676;50.848;3.272;2022-12-16T11:32:42;6.30;99.90
21035;DHT22;10676;50.848;3.272;2022-12-16T11:35:30;6.30;99.90
21035;DHT22;10676;50.848;3.272;2022-12-16T11:41:08;6.40;99.90
21035;DHT22;10676;50.848;3.272;2022-12-16T11:43:55;6.50;99.90
21035;DHT22;10676;50.848;3.272;2022-12-16T11:46:41;6.60;99.90
21035;DHT22;10676;50.848;3.272;2022-12-16T11:49:30;6.80;99.90
21035;DHT22;10676;50.848;3.272;2022-12-16T11:52:18;7.10;99.90
21035;DHT22;10676;50.848;3.272;2022-12-16T11:55:20;7.20;99.90
21035;DHT22;10676;50.848;3.272;2022-12-16T11:58:27;7.20;99.90
21035;DHT22;10676;50.848;3.272;2022-12-16T12:01:19;7.20;99.90
21035;DHT22;10676;50.848;3.272;2022-12-16T12:04:04;7.10;99.90
21035;DHT22;10676;50.848;3.272;2022-12-16T12:10:00;7.30;99.90
21035;DHT22;10676;50.848;3.272;2022-12-16T12:13:01;7.50;99.90
21035;DHT22;10676;50.848;3.272;2022-12-16T12:15:59;7.70;99.90
21035;DHT22;10676;50.848;3.272;2022-12-16T12:19:17;7.80;99.90
21035;DHT22;10676;50.848;3.272;2022-12-16T12:22:09;8.10;99.90
21035;DHT22;10676;50.848;3.272;2022-12-16T12:28:23;8.40;99.90
21035;DHT22;10676;50.848;3.272;2022-12-16T12:31:17;8.90;99.90
21035;DHT22;10676;50.848;3.272;2022-12-16T12:34:05;9.40;99.90
21035;DHT22;10676;50.848;3.272;2022-12-16T12:40:40;10.30;99.90
21035;DHT22;10676;50.848;3.272;2022-12-16T12:46:26;10.80;99.90
21035;DHT22;10676;50.848;3.272;2022-12-16T12:50:10;11.00;99.90
21035;DHT22;10676;50.848;3.272;2022-12-16T12:58:33;11.20;99.90
21035;DHT22;10676;50.848;3.272;2022-12-16T13:01:20;11.20;99.90
21035;DHT22;10676;50.848;3.272;2022-12-16T13:04:19;11.30;99.90
21035;DHT22;10676;50.848;3.272;2022-12-16T13:07:05;11.30;99.90
21035;DHT22;10676;50.848;3.272;2022-12-16T13:10:11;11.00;99.90
21035;DHT22;10676;50.848;3.272;2022-12-16T13:15:58;10.20;99.90
21035;DHT22;10676;50.848;3.272;2022-12-16T13:18:43;10.00;99.90
21035;DHT22;10676;50.848;3.272;2022-12-16T13:27:18;9.60;99.90
21035;DHT22;10676;50.848;3.272;2022-12-16T13:30:23;9.50;99.90
21035;DHT22;10676;50.848;3.272;2022-12-16T13:33:30;9.40;99.90
21035;DHT22;10676;50.848;3.272;2022-12-16T13:36:17;9.10;99.90
21035;DHT22;10676;50.848;3.272;2022-12-16T13:39:20;8.80;99.90
21035;DHT22;10676;50.848;3.272;2022-12-16T13:42:05;8.50;99.90
21035;DHT22;10676;50.848;3.272;2022-12-16T13:48:32;7.90;99.90
21035;DHT22;10676;50.848;3.272;2022-12-16T13:54:38;7.60;99.90
21035;DHT22;10676;50.848;3.272;2022-12-16T13:57:28;7.60;99.90
21035;DHT22;10676;50.848;3.272;2022-12-16T14:00:19;7.60;99.90
21035;DHT22;10676;50.848;3.272;2022-12-16T14:06:24;7.60;99.90
21035;DHT22;10676;50.848;3.272;2022-12-16T14:25:21;7.40;99.90
21035;DHT22;10676;50.848;3.272;2022-12-16T14:28:29;7.30;99.90
21035;DHT22;10676;50.848;3.272;2022-12-16T14:31:24;7.20;99.90
21035;DHT22;10676;50.848;3.272;2022-12-16T14:34:17;7.10;99.90
21035;DHT22;10676;50.848;3.272;2022-12-16T14:37:19;7.10;99.90
21035;DHT22;10676;50.848;3.272;2022-12-16T14:40:31;7.00;99.90
21035;DHT22;10676;50.848;3.272;2022-12-16T14:43:21;6.90;99.90
21035;DHT22;10676;50.848;3.272;2022-12-16T14:46:26;6.80;99.90
21035;DHT22;10676;50.848;3.272;2022-12-16T14:49:21;6.60;99.90
21035;DHT22;10676;50.848;3.272;2022-12-16T14:52:18;6.50;99.90
21035;DHT22;10676;50.848;3.272;2022-12-16T14:55:30;6.30;99.90
21035;DHT22;10676;50.848;3.272;2022-12-16T14:58:20;6.00;99.90
21035;DHT22;10676;50.848;3.272;2022-12-16T15:01:19;5.80;99.90
21035;DHT22;10676;50.848;3.272;2022-12-16T15:04:07;5.60;99.90
21035;DHT22;10676;50.848;3.272;2022-12-16T15:06:55;5.30;99.90
21035;DHT22;10676;50.848;3.272;2022-12-16T15:09:45;5.10;99.90
21035;DHT22;10676;50.848;3.272;2022-12-16T15:12:34;4.90;99.90
21035;DHT22;10676;50.848;3.272;2022-12-16T15:15:41;4.70;99.90
21035;DHT22;10676;50.848;3.272;2022-12-16T15:18:34;4.50;99.90
21035;DHT22;10676;50.848;3.272;2022-12-16T15:21:21;4.30;99.90
21035;DHT22;10676;50.848;3.272;2022-12-16T15:24:12;4.00;99.90
21035;DHT22;10676;50.848;3.272;2022-12-16T15:30:01;3.50;99.90
21035;DHT22;10676;50.848;3.272;2022-12-16T15:32:52;3.30;99.90
21035;DHT22;10676;50.848;3.272;2022-12-16T15:35:37;3.10;99.90
21035;DHT22;10676;50.848;3.272;2022-12-16T15:38:28;2.90;99.90
21035;DHT22;10676;50.848;3.272;2022-12-16T15:44:03;2.50;99.90
21035;DHT22;10676;50.848;3.272;2022-12-16T15:46:47;2.30;99.90
21035;DHT22;10676;50.848;3.272;2022-12-16T15:49:34;2.10;99.90
21035;DHT22;10676;50.848;3.272;2022-12-16T15:58:26;1.30;99.90
21035;DHT22;10676;50.848;3.272;2022-12-16T16:01:12;1.10;99.90
21035;DHT22;10676;50.848;3.272;2022-12-16T16:03:57;0.90;99.90
21035;DHT22;10676;50.848;3.272;2022-12-16T16:06:49;0.70;99.90
21035;DHT22;10676;50.848;3.272;2022-12-16T16:09:36;0.60;99.90
21035;DHT22;10676;50.848;3.272;2022-12-16T16:12:22;0.40;99.90
21035;DHT22;10676;50.848;3.272;2022-12-16T16:15:09;0.20;99.90
21035;DHT22;10676;50.848;3.272;2022-12-16T16:18:04;0.00;99.90
21035;DHT22;10676;50.848;3.272;2022-12-16T16:20:50;-0.20;99.90
21035;DHT22;10676;50.848;3.272;2022-12-16T16:23:34;-0.40;99.90
21035;DHT22;10676;50.848;3.272;2022-12-16T16:26:21;-0.50;99.90
21035;DHT22;10676;50.848;3.272;2022-12-16T16:29:08;-0.60;99.90
21035;DHT22;10676;50.848;3.272;2022-12-16T16:31:53;-0.70;99.90
21035;DHT22;10676;50.848;3.272;2022-12-16T16:34:37;-0.90;99.90
21035;DHT22;10676;50.848;3.272;2022-12-16T16:37:21;-1.00;99.90
21035;DHT22;10676;50.848;3.272;2022-12-16T16:43:07;-1.30;99.90
21035;DHT22;10676;50.848;3.272;2022-12-16T16:45:54;-1.60;99.90
21035;DHT22;10676;50.848;3.272;2022-12-16T16:48:39;-1.50;99.90
21035;DHT22;10676;50.848;3.272;2022-12-16T16:51:24;-1.50;99.90
21035;DHT22;10676;50.848;3.272;2022-12-16T16:54:08;-1.50;99.90
21035;DHT22;10676;50.848;3.272;2022-12-16T16:57:07;-1.60;99.90
21035;DHT22;10676;50.848;3.272;2022-12-16T16:59:52;-1.70;99.90
21035;DHT22;10676;50.848;3.272;2022-12-16T17:02:36;-1.80;99.90
21035;DHT22;10676;50.848;3.272;2022-12-16T17:05:21;-1.90;99.90
21035;DHT22;10676;50.848;3.272;2022-12-16T17:08:05;-1.90;99.90
21035;DHT22;10676;50.848;3.272;2022-12-16T17:10:49;-2.00;99.90
21035;DHT22;10676;50.848;3.272;2022-12-16T17:13:33;-2.00;99.90
21035;DHT22;10676;50.848;3.272;2022-12-16T17:16:17;-2.00;99.90
21035;DHT22;10676;50.848;3.272;2022-12-16T17:19:01;-2.00;99.90
21035;DHT22;10676;50.848;3.272;2022-12-16T17:21:45;-2.00;99.90
21035;DHT22;10676;50.848;3.272;2022-12-16T17:24:29;-2.10;99.90
21035;DHT22;10676;50.848;3.272;2022-12-16T17:27:19;-2.20;99.90
21035;DHT22;10676;50.848;3.272;2022-12-16T17:30:10;-2.20;99.90
21035;DHT22;10676;50.848;3.272;2022-12-16T17:32:55;-2.30;99.90
21035;DHT22;10676;50.848;3.272;2022-12-16T17:35:39;-2.30;99.90
21035;DHT22;10676;50.848;3.272;2022-12-16T17:38:23;-2.40;99.90
21035;DHT22;10676;50.848;3.272;2022-12-16T17:41:08;-2.40;99.90
21035;DHT22;10676;50.848;3.272;2022-12-16T17:43:52;-2.40;99.90
21035;DHT22;10676;50.848;3.272;2022-12-16T17:46:36;-2.50;99.90
21035;DHT22;10676;50.848;3.272;2022-12-16T17:49:21;-2.50;99.90
21035;DHT22;10676;50.848;3.272;2022-12-16T17:52:05;-2.50;99.90
21035;DHT22;10676;50.848;3.272;2022-12-16T17:54:49;-2.40;99.90
21035;DHT22;10676;50.848;3.272;2022-12-16T17:57:33;-2.40;99.90
21035;DHT22;10676;50.848;3.272;2022-12-16T18:00:17;-2.40;99.90
21035;DHT22;10676;50.848;3.272;2022-12-16T18:03:02;-2.50;99.90
21035;DHT22;10676;50.848;3.272;2022-12-16T18:05:46;-2.50;99.90
21035;DHT22;10676;50.848;3.272;2022-12-16T18:08:31;-2.60;99.90
21035;DHT22;10676;50.848;3.272;2022-12-16T18:11:15;-2.60;99.90
21035;DHT22;10676;50.848;3.272;2022-12-16T18:14:00;-2.60;99.90
21035;DHT22;10676;50.848;3.272;2022-12-16T18:16:44;-2.70;99.90
21035;DHT22;10676;50.848;3.272;2022-12-16T18:19:28;-2.70;99.90
21035;DHT22;10676;50.848;3.272;2022-12-16T18:22:15;-2.80;99.90
21035;DHT22;10676;50.848;3.272;2022-12-16T18:24:59;-2.70;99.90
21035;DHT22;10676;50.848;3.272;2022-12-16T18:27:43;-2.70;99.90
21035;DHT22;10676;50.848;3.272;2022-12-16T18:30:27;-2.70;99.90
21035;DHT22;10676;50.848;3.272;2022-12-16T18:33:11;-2.70;99.90
21035;DHT22;10676;50.848;3.272;2022-12-16T18:35:55;-2.80;99.90
21035;DHT22;10676;50.848;3.272;2022-12-16T18:38:39;-2.80;99.90
21035;DHT22;10676;50.848;3.272;2022-12-16T18:41:23;-2.90;99.90
21035;DHT22;10676;50.848;3.272;2022-12-16T18:44:12;-2.90;99.90
21035;DHT22;10676;50.848;3.272;2022-12-16T18:46:58;-2.90;99.90
21035;DHT22;10676;50.848;3.272;2022-12-16T18:49:42;-3.00;99.90
21035;DHT22;10676;50.848;3.272;2022-12-16T18:52:26;-3.00;99.90
21035;DHT22;10676;50.848;3.272;2022-12-16T18:55:11;-3.00;99.90
21035;DHT22;10676;50.848;3.272;2022-12-16T18:57:55;-3.00;99.90
21035;DHT22;10676;50.848;3.272;2022-12-16T19:00:39;-3.00;99.90
21035;DHT22;10676;50.848;3.272;2022-12-16T19:03:23;-3.00;99.90
21035;DHT22;10676;50.848;3.272;2022-12-16T19:06:07;-3.00;99.90
21035;DHT22;10676;50.848;3.272;2022-12-16T19:08:52;-3.00;99.90
21035;DHT22;10676;50.848;3.272;2022-12-16T19:11:36;-3.00;99.90
21035;DHT22;10676;50.848;3.272;2022-12-16T19:14:20;-3.00;99.90
21035;DHT22;10676;50.848;3.272;2022-12-16T19:17:05;-3.00;99.90